»·PEaware :: QXE2486 KSLC-KJAC

QXE2486 :: KSLC-KJAC

FLIGHT INFORMATION

Flight Status: Arrived
Operator:
Horizon Air
More flights by this operator :: More flights under this callsign
Pilot: Walter H. (552)
Aircraft: DEHAVILLAND DASH 8 400
(DH8D)
More flights by this aircraft type
Origin: KSLC Salt Lake City Intl
United States
Destination: KJAC Jackson Hole
United States
More flights between these airports :: More routes between these airports
Route: +SLC4 TCH DNW
File this flight plan on PilotEdge
Remarks:
Altitude:
(Current/Filed)
24,000ft
Speed:
(Current/Filed)
320kts
Departed: 17-Jan-19 01:26 PM
Arrived: 17-Jan-19 02:11 PM
Distance/Time
Traveled:
178nm/0:44
Distance/Time
To Go:
Arrived

Flight Plot

Page will automatically refresh every two minutes.

Flight plan parsing failed; only flown route is shown


Map Options




Map Legend


Flown Route
Filed Route
Departure Airport
Arrival Airport
Navaid (VOR, NDB)
Fix

Horizontal Profiles

Position Reports

Time Latitude Longitude Heading Altitude Ground
Speed
17-Jan-19 12:42 40.788199 -111.981998 88 4234ft 0kts
17-Jan-19 12:43 40.788199 -111.981998 88 4234ft 0kts
17-Jan-19 12:44 40.788199 -111.981998 88 4234ft 0kts
17-Jan-19 12:45 40.788199 -111.981998 88 4234ft 0kts
17-Jan-19 12:46 40.788199 -111.981998 88 4234ft 0kts
17-Jan-19 12:47 40.788199 -111.981998 88 4234ft 0kts
17-Jan-19 12:48 40.788199 -111.981998 88 4234ft 0kts
17-Jan-19 12:49 40.788199 -111.981998 88 4234ft 0kts
17-Jan-19 12:50 40.788199 -111.981998 88 4234ft 0kts
17-Jan-19 12:51 40.788199 -111.981998 88 4234ft 0kts
17-Jan-19 12:52 40.788199 -111.981997 88 4234ft 0kts
17-Jan-19 12:53 40.788200 -111.981997 88 4234ft 0kts
17-Jan-19 12:54 40.788200 -111.981997 88 4234ft 0kts
17-Jan-19 12:55 40.788200 -111.981997 88 4234ft 0kts
17-Jan-19 12:56 40.788200 -111.981997 88 4234ft 0kts
17-Jan-19 12:58 40.788200 -111.981997 88 4234ft 0kts
17-Jan-19 12:59 40.788200 -111.981997 88 4234ft 0kts
17-Jan-19 13:00 40.788200 -111.981997 88 4234ft 0kts
17-Jan-19 13:01 40.788200 -111.981997 88 4234ft 0kts
17-Jan-19 13:02 40.788200 -111.981997 88 4234ft 0kts
17-Jan-19 13:03 40.788200 -111.981997 88 4234ft 0kts
17-Jan-19 13:04 40.788200 -111.981997 88 4234ft 0kts
17-Jan-19 13:05 40.788200 -111.981997 88 4234ft 0kts
17-Jan-19 13:06 40.788200 -111.981997 88 4234ft 0kts
17-Jan-19 13:07 40.788199 -111.982003 88 4234ft 0kts
17-Jan-19 13:08 40.788080 -111.982775 49 4234ft 2kts
17-Jan-19 13:09 40.787851 -111.982918 11 4234ft 0kts
17-Jan-19 13:10 40.787851 -111.982918 11 4234ft 0kts
17-Jan-19 13:11 40.787851 -111.982918 11 4234ft 0kts
17-Jan-19 13:12 40.789069 -111.982699 349 4234ft 1kts
17-Jan-19 13:13 40.791183 -111.982944 354 4234ft 3kts
17-Jan-19 13:14 40.791697 -111.982128 85 4234ft 15kts
17-Jan-19 13:15 40.791536 -111.984739 265 4234ft 19kts
17-Jan-19 13:16 40.791094 -111.991530 265 4234ft 14kts
17-Jan-19 13:17 40.793401 -111.995412 354 4234ft 18kts
17-Jan-19 13:17 40.797944 -111.995945 354 4234ft 20kts
17-Jan-19 13:19 40.806172 -111.996889 353 4234ft 24kts
17-Jan-19 13:19 40.807645 -111.997904 266 4234ft 0kts
17-Jan-19 13:20 40.807642 -111.997967 262 4234ft 0kts
17-Jan-19 13:22 40.807639 -111.997997 262 4234ft 0kts
17-Jan-19 13:22 40.807639 -111.997997 262 4234ft 0kts
17-Jan-19 13:23 40.805004 -111.998925 175 4234ft 62kts
17-Jan-19 13:24 40.767857 -111.998511 213 5753ft 148kts
17-Jan-19 13:25 40.777665 -112.048080 308 8193ft 172kts
17-Jan-19 13:26 40.808155 -112.100641 286 10213ft 188kts
17-Jan-19 13:27 40.864724 -112.114902 39 11175ft 285kts
17-Jan-19 13:28 40.875287 -112.015320 93 12234ft 300kts
17-Jan-19 13:29 40.929544 -111.938187 16 13624ft 302kts
17-Jan-19 13:30 41.008420 -111.897720 15 14809ft 304kts
17-Jan-19 13:31 41.087881 -111.855832 15 15870ft 309kts
17-Jan-19 13:32 41.168009 -111.813322 15 16931ft 313kts
17-Jan-19 13:33 41.249910 -111.769823 15 17580ft 324kts
17-Jan-19 13:34 41.334145 -111.724934 15 18242ft 328kts
17-Jan-19 13:35 41.419217 -111.679533 15 18868ft 333kts
17-Jan-19 13:36 41.505688 -111.633208 15 19466ft 337kts
17-Jan-19 13:37 41.593077 -111.586211 15 19998ft 341kts
17-Jan-19 13:38 41.681378 -111.538572 15 20489ft 344kts
17-Jan-19 13:39 41.770492 -111.490516 16 20980ft 347kts
17-Jan-19 13:40 41.860392 -111.441652 16 21428ft 350kts
17-Jan-19 13:41 41.950876 -111.392457 16 21867ft 353kts
17-Jan-19 13:42 42.041951 -111.342832 16 22247ft 355kts
17-Jan-19 13:43 42.133656 -111.292573 16 22616ft 357kts
17-Jan-19 13:44 42.224427 -111.242634 16 23461ft 342kts
17-Jan-19 13:45 42.312547 -111.194251 16 23907ft 347kts
17-Jan-19 13:46 42.403673 -111.144008 17 23924ft 362kts
17-Jan-19 13:47 42.497800 -111.091730 17 23920ft 371kts
17-Jan-19 13:48 42.594066 -111.038223 17 23918ft 377kts
17-Jan-19 13:49 42.691383 -110.983848 17 23917ft 380kts
17-Jan-19 13:50 42.789080 -110.929216 17 23916ft 382kts
17-Jan-19 13:51 42.887149 -110.874040 18 23917ft 382kts
17-Jan-19 13:52 42.984802 -110.816315 30 23913ft 388kts
17-Jan-19 13:57 43.350495 -110.300979 27 13912ft 348kts
17-Jan-19 13:58 43.444229 -110.286686 351 13907ft 343kts
17-Jan-19 13:59 43.538637 -110.298094 350 13882ft 326kts
17-Jan-19 14:00 43.623804 -110.308738 349 13908ft 293kts
17-Jan-19 14:01 43.703322 -110.318986 348 13997ft 288kts
17-Jan-19 14:02 43.783647 -110.340604 316 13902ft 295kts
17-Jan-19 14:03 43.797653 -110.438315 250 11642ft 262kts
17-Jan-19 14:04 43.774218 -110.527289 246 11007ft 230kts
17-Jan-19 14:05 43.753139 -110.602241 246 10985ft 184kts
17-Jan-19 14:06 43.733895 -110.664767 224 9132ft 174kts
17-Jan-19 14:07 43.690408 -110.696638 202 8023ft 185kts
17-Jan-19 14:08 43.648206 -110.717692 201 7123ft 140kts
17-Jan-19 14:09 43.611426 -110.735709 199 6467ft 127kts
17-Jan-19 14:10 43.603597 -110.738080 109 6458ft 5kts

Navigation Log

Ident Type
Flight plan parsing failed, navigation log unavailable